Accueil
METAR-TAF:

METAR-TAF

Aéroports :

Aéroport de Milan-Linate

Milan, Italie

latitude: 45-26N, longitude: 009-17E, altitude: 107 m

Observation

Le bulletin a été fait il y a 30 minutes, à 21:50 UTC
Vent 7 kt de ouest/nord-ouest
Température 7°C
Humidité 33%
Pression 1008 hPa
Visibilité 10 km ou plus
pas de nuages en-dessous de 1500 mètres et pas de cumulonimbus.

METAR: LIML 262150Z 30007KT CAVOK 07/M08 Q1008 NOSIG

Heure: 23:20 (22:20 UTC)

Prévision

Le bulletin a été fait il y a 5 heures et 20 minutes, à 17:00 UTC
Prévision valable du 26 à 18 UTC au 27 à 18 UTC
Vent 12 kt de ouest/nord-ouest
Visibilité 10 km ou plus
pas de nuages en-dessous de 1500 mètres et pas de cumulonimbus.
Evoluant progressivement
du 27 à 00 UTC au 27 à 02 UTC
Vent 5 kt de direction variable

TAF: LIML 261700Z 2618/2718 30012KT CAVOK BECMG 2700/2702 VRB05KT

Observations et prévisions météorologiques de plus de 4000 aéroports (messages METAR et TAF).

Les stations disponibles sont représentées par des disques jaunes et rouges sur la carte.

Passer la souris dessus pour voir le nom de la station.

Cliquer dessus pour voir les observations et prévisions météorologiques.

Pour changer de carte: cliquez sur les boutons verts avec une croix noire pour zoomer, sur le bouton vert avec un tiret pour effectuer un zoom arrière, ou sur les flèches vertes pour les cartes adjacentes.


METAR-TAF: